createdAt,value
2022-09-23T00:01:46.414Z,3.77
2022-09-23T00:04:13.006Z,3.57
2022-09-23T00:06:39.641Z,4.03
2022-09-23T00:09:06.220Z,3.43
2022-09-23T00:11:32.869Z,3.63
2022-09-23T00:13:59.835Z,4.93
2022-09-23T00:16:32.532Z,6.03
2022-09-23T00:18:59.768Z,4.07
2022-09-23T00:21:26.615Z,4.00
2022-09-23T00:23:53.168Z,4.17
2022-09-23T00:26:20.765Z,3.70
2022-09-23T00:28:47.764Z,3.67
2022-09-23T00:31:16.315Z,4.90
2022-09-23T00:33:43.189Z,4.30
2022-09-23T00:36:11.386Z,3.80
2022-09-23T00:38:38.605Z,3.80
2022-09-23T00:41:17.165Z,3.40
2022-09-23T00:43:59.751Z,4.50
2022-09-23T00:46:32.744Z,4.37
2022-09-23T00:49:02.717Z,5.50
2022-09-23T00:51:38.549Z,4.50
2022-09-23T00:54:05.556Z,4.97
2022-09-23T00:56:32.982Z,4.97
2022-09-23T00:59:00.422Z,4.90
2022-09-23T01:01:27.017Z,5.10
2022-09-23T01:03:54.471Z,5.60
2022-09-23T01:06:20.996Z,5.50
2022-09-23T01:08:47.864Z,5.60
2022-09-23T01:11:22.025Z,4.70
2022-09-23T01:14:13.188Z,5.00
2022-09-23T01:16:42.745Z,5.60
2022-09-23T01:19:48.739Z,4.93
2022-09-23T01:22:20.590Z,6.20
2022-09-23T01:25:02.400Z,5.37
2022-09-23T01:27:41.668Z,5.80
2022-09-23T01:30:11.274Z,5.60
2022-09-23T01:33:04.643Z,5.63
2022-09-23T01:35:40.702Z,6.47
2022-09-23T01:38:26.136Z,5.70
2022-09-23T01:40:59.536Z,6.00
2022-09-23T01:43:36.569Z,5.87
2022-09-23T01:46:07.974Z,6.23
2022-09-23T01:48:40.647Z,5.37
2022-09-23T01:51:28.113Z,6.83
2022-09-23T01:54:15.721Z,6.97
2022-09-23T01:56:46.192Z,6.57
2022-09-23T01:59:16.883Z,6.60
2022-09-23T02:02:09.748Z,6.70
2022-09-23T02:04:48.071Z,7.03
2022-09-23T02:07:20.313Z,6.67
2022-09-23T02:09:50.254Z,7.03
2022-09-23T02:12:18.835Z,6.80
2022-09-23T02:14:48.372Z,6.40
2022-09-23T02:17:17.701Z,7.50
2022-09-23T02:19:57.183Z,7.07
2022-09-23T02:22:29.869Z,6.80
2022-09-23T02:24:57.440Z,6.90
2022-09-23T02:27:25.997Z,7.50
2022-09-23T02:29:55.539Z,8.03
2022-09-23T02:32:32.003Z,6.60
2022-09-23T02:35:07.536Z,7.90
2022-09-23T02:37:48.221Z,7.60
2022-09-23T02:40:23.686Z,8.03
2022-09-23T02:42:59.349Z,7.43
2022-09-23T02:45:25.948Z,8.47
2022-09-23T02:47:55.161Z,8.27
2022-09-23T02:50:22.378Z,9.20
2022-09-23T02:52:49.356Z,7.80
2022-09-23T02:55:16.948Z,7.50
2022-09-23T02:57:43.745Z,7.63
2022-09-23T03:00:10.671Z,8.40
2022-09-23T03:02:49.225Z,8.43
2022-09-23T03:05:24.758Z,8.13
2022-09-23T03:07:51.202Z,7.73
2022-09-23T03:10:22.092Z,7.90
2022-09-23T03:13:11.147Z,8.47
2022-09-23T03:15:41.966Z,7.40
2022-09-23T03:18:31.702Z,8.70
2022-09-23T03:21:03.111Z,7.20
2022-09-23T03:23:33.826Z,7.90
2022-09-23T03:26:01.758Z,7.77
2022-09-23T03:28:28.729Z,7.93
2022-09-23T03:30:56.130Z,8.70
2022-09-23T03:33:28.473Z,8.17
2022-09-23T03:36:20.163Z,8.20
2022-09-23T03:38:52.293Z,8.70
2022-09-23T03:41:23.347Z,7.93
2022-09-23T03:43:51.067Z,8.20
2022-09-23T03:46:18.583Z,9.03
2022-09-23T03:48:45.890Z,8.50
2022-09-23T03:51:23.939Z,8.80
2022-09-23T03:53:50.882Z,8.10
2022-09-23T03:56:17.590Z,7.77
2022-09-23T03:58:46.389Z,7.97
2022-09-23T04:01:14.744Z,8.10
2022-09-23T04:03:41.716Z,8.27
2022-09-23T04:06:08.324Z,8.70
2022-09-23T04:08:34.901Z,8.70
2022-09-23T04:11:02.332Z,9.90
2022-09-23T04:13:29.580Z,9.30
2022-09-23T04:15:56.147Z,9.17
2022-09-23T04:18:23.286Z,9.50
2022-09-23T04:20:50.182Z,8.33
2022-09-23T04:23:16.721Z,9.33
2022-09-23T04:25:47.163Z,9.33
2022-09-23T04:28:13.750Z,8.67
2022-09-23T04:30:42.305Z,9.20
2022-09-23T04:33:09.121Z,10.57
2022-09-23T04:35:40.046Z,10.03
2022-09-23T04:38:07.142Z,9.17
2022-09-23T04:40:34.272Z,7.80
2022-09-23T04:43:00.822Z,9.20
2022-09-23T04:45:27.374Z,10.10
2022-09-23T04:47:54.326Z,9.90
2022-09-23T04:50:20.989Z,8.77
2022-09-23T04:52:47.518Z,8.80
2022-09-23T04:55:14.086Z,11.10
2022-09-23T04:57:40.774Z,8.50
2022-09-23T05:00:07.744Z,9.93
2022-09-23T05:02:35.734Z,10.57
2022-09-23T05:05:02.292Z,8.97
2022-09-23T05:07:28.829Z,9.73
2022-09-23T05:09:55.365Z,9.07
2022-09-23T05:12:21.842Z,8.30
2022-09-23T05:14:48.433Z,10.73
2022-09-23T05:17:15.506Z,9.80
2022-09-23T05:19:42.453Z,10.33
2022-09-23T05:22:09.010Z,11.00
2022-09-23T05:24:35.538Z,9.63
2022-09-23T05:27:02.112Z,9.27
2022-09-23T05:29:29.281Z,9.23
2022-09-23T05:31:55.826Z,9.63
2022-09-23T05:34:23.172Z,8.80
2022-09-23T05:36:49.630Z,8.50
2022-09-23T05:39:16.210Z,8.37
2022-09-23T05:41:43.528Z,8.20
2022-09-23T05:44:10.050Z,8.87
2022-09-23T05:46:36.659Z,8.10
2022-09-23T05:49:05.393Z,10.23
2022-09-23T05:51:32.814Z,7.33
2022-09-23T05:54:00.044Z,7.23
2022-09-23T05:56:27.471Z,8.23
2022-09-23T05:58:54.807Z,7.53
2022-09-23T06:01:24.824Z,7.70
2022-09-23T06:03:51.950Z,6.53
2022-09-23T06:06:19.809Z,6.70
2022-09-23T06:08:47.151Z,6.77
2022-09-23T06:11:14.263Z,8.23
2022-09-23T06:13:41.259Z,7.87
2022-09-23T06:16:09.327Z,6.50
2022-09-23T06:18:38.188Z,6.80
2022-09-23T06:21:04.997Z,6.03
2022-09-23T06:23:31.844Z,5.77
2022-09-23T06:26:02.272Z,5.50
2022-09-23T06:28:32.976Z,5.73
2022-09-23T06:31:00.402Z,4.90
2022-09-23T06:33:36.242Z,5.33
2022-09-23T06:36:05.214Z,5.10
2022-09-23T06:38:33.590Z,4.10
2022-09-23T06:41:01.427Z,5.37
2022-09-23T06:43:27.900Z,5.97
2022-09-23T06:46:00.738Z,4.37
2022-09-23T06:48:28.129Z,5.00
2022-09-23T06:50:58.030Z,5.63
2022-09-23T06:53:24.531Z,4.57
2022-09-23T06:56:02.517Z,4.80
2022-09-23T06:58:29.956Z,4.97
2022-09-23T07:01:00.559Z,4.47
2022-09-23T07:03:27.105Z,4.90
2022-09-23T07:05:56.718Z,5.37
2022-09-23T07:08:23.851Z,7.10
2022-09-23T07:10:53.978Z,5.50
2022-09-23T07:13:20.505Z,5.20
2022-09-23T07:15:50.799Z,4.87
2022-09-23T07:18:18.235Z,5.80
2022-09-23T07:20:46.414Z,5.50
2022-09-23T07:23:13.125Z,5.50
2022-09-23T07:25:40.025Z,6.43
2022-09-23T07:28:07.039Z,5.63
2022-09-23T07:30:36.807Z,5.70
2022-09-23T07:33:08.435Z,6.17
2022-09-23T07:35:40.861Z,6.00
2022-09-23T07:38:07.796Z,5.10
2022-09-23T07:40:34.833Z,6.67
2022-09-23T07:43:02.227Z,6.30
2022-09-23T07:45:28.744Z,6.60
2022-09-23T07:47:55.307Z,6.50
2022-09-23T07:50:22.544Z,5.20
2022-09-23T07:52:52.928Z,4.17
2022-09-23T07:55:21.139Z,5.40
2022-09-23T07:57:47.720Z,4.60
2022-09-23T08:00:14.282Z,5.13
2022-09-23T08:02:41.860Z,5.30
2022-09-23T08:05:09.140Z,5.47
2022-09-23T08:07:35.673Z,4.40
2022-09-23T08:10:02.430Z,5.23
2022-09-23T08:12:29.447Z,4.50
2022-09-23T08:14:56.463Z,4.20
2022-09-23T08:17:23.017Z,4.40
2022-09-23T08:19:49.628Z,4.87
2022-09-23T08:22:16.424Z,4.60
2022-09-23T08:24:42.992Z,4.00
2022-09-23T08:27:10.815Z,3.90
2022-09-23T08:29:37.396Z,4.13
2022-09-23T08:32:04.010Z,4.70
2022-09-23T08:34:30.507Z,5.80
2022-09-23T08:36:57.078Z,4.60
2022-09-23T08:39:23.620Z,5.60
2022-09-23T08:41:58.413Z,4.90
2022-09-23T08:44:34.836Z,5.70
2022-09-23T08:47:11.754Z,5.77
2022-09-23T08:49:53.884Z,4.67
2022-09-23T08:52:24.056Z,4.70
2022-09-23T08:54:55.113Z,4.70
2022-09-23T08:57:30.212Z,4.60
2022-09-23T08:59:57.023Z,5.13
2022-09-23T09:02:23.593Z,4.17
2022-09-23T09:04:55.005Z,4.10
2022-09-23T09:07:36.384Z,4.20
2022-09-23T09:10:16.638Z,4.10
2022-09-23T09:12:46.207Z,3.60
2022-09-23T09:15:20.326Z,4.23
2022-09-23T09:17:51.004Z,3.00
2022-09-23T09:20:24.862Z,5.10
2022-09-23T09:22:57.692Z,3.07
2022-09-23T09:25:33.496Z,3.30
2022-09-23T09:28:01.235Z,2.90
2022-09-23T09:30:28.025Z,3.03
2022-09-23T09:32:59.890Z,3.70
2022-09-23T09:35:33.125Z,4.10
2022-09-23T09:37:59.751Z,3.80
2022-09-23T09:40:26.350Z,4.37
2022-09-23T09:42:52.971Z,3.30
2022-09-23T09:45:38.561Z,3.20
2022-09-23T09:48:17.743Z,3.83
2022-09-23T09:50:44.198Z,3.43
2022-09-23T09:53:21.870Z,3.23
2022-09-23T09:56:04.685Z,3.57
2022-09-23T09:58:41.043Z,4.47
2022-09-23T10:01:08.154Z,3.53
2022-09-23T10:03:39.397Z,3.83
2022-09-23T10:06:13.689Z,3.10
2022-09-23T10:08:40.259Z,3.23
2022-09-23T10:11:08.062Z,2.80
2022-09-23T10:13:35.061Z,2.77
2022-09-23T10:16:03.787Z,2.07
2022-09-23T10:18:32.365Z,1.97
2022-09-23T10:21:06.502Z,3.30
2022-09-23T10:23:33.388Z,3.03
2022-09-23T10:26:01.751Z,2.07
2022-09-23T10:28:47.205Z,2.40
2022-09-23T10:31:15.771Z,2.43
2022-09-23T10:33:54.662Z,3.00
2022-09-23T10:36:21.377Z,2.87
2022-09-23T10:38:49.488Z,2.17
2022-09-23T10:41:44.002Z,2.10
2022-09-23T10:44:39.669Z,3.13
2022-09-23T10:47:15.421Z,3.20
2022-09-23T10:49:54.378Z,3.20
2022-09-23T10:52:39.770Z,2.03
2022-09-23T10:55:06.301Z,2.90
2022-09-23T10:57:41.917Z,2.37
2022-09-23T11:00:08.541Z,2.63
2022-09-23T11:02:55.956Z,3.17
2022-09-23T11:05:41.396Z,2.57
2022-09-23T11:08:07.938Z,2.30
2022-09-23T11:10:48.497Z,2.27
2022-09-23T11:13:23.330Z,2.70
2022-09-23T11:15:52.890Z,4.00
2022-09-23T11:18:39.651Z,2.60
2022-09-23T11:21:21.341Z,2.87
2022-09-23T11:23:54.310Z,2.30
2022-09-23T11:26:20.817Z,2.37
2022-09-23T11:29:06.286Z,3.10
2022-09-23T11:31:59.394Z,2.13
2022-09-23T11:34:34.965Z,2.10
2022-09-23T11:37:05.272Z,1.90
2022-09-23T11:39:41.813Z,1.83
2022-09-23T11:42:13.161Z,1.90
2022-09-23T11:44:45.085Z,2.00
2022-09-23T11:47:16.465Z,1.73
2022-09-23T11:50:04.822Z,2.57
2022-09-23T11:52:34.444Z,2.37
2022-09-23T11:55:04.067Z,2.03
2022-09-23T11:57:46.904Z,1.23
2022-09-23T12:00:19.087Z,1.37
2022-09-23T12:02:54.771Z,1.80
2022-09-23T12:05:30.351Z,1.50
2022-09-23T12:08:14.885Z,1.10
2022-09-23T12:10:41.965Z,1.50
2022-09-23T12:13:19.155Z,1.37
2022-09-23T12:16:03.467Z,1.50
2022-09-23T12:18:37.100Z,1.50
2022-09-23T12:21:45.730Z,1.17
2022-09-23T12:24:26.153Z,1.50
2022-09-23T12:26:55.314Z,1.27
2022-09-23T12:29:24.305Z,1.20
2022-09-23T12:31:50.904Z,1.83
2022-09-23T12:34:48.774Z,2.50
2022-09-23T12:37:42.100Z,1.50
2022-09-23T12:40:14.500Z,1.50
2022-09-23T12:42:44.101Z,1.60
2022-09-23T12:45:19.276Z,2.43
2022-09-23T12:47:45.829Z,1.97
2022-09-23T12:50:31.036Z,2.73
2022-09-23T12:52:57.590Z,2.10
2022-09-23T12:55:24.089Z,1.43
2022-09-23T12:57:50.704Z,2.00
2022-09-23T13:00:20.257Z,1.50
2022-09-23T13:02:46.748Z,1.90
2022-09-23T13:05:35.129Z,2.00
2022-09-23T13:08:05.326Z,2.33
2022-09-23T13:10:43.115Z,2.10
2022-09-23T13:13:18.065Z,2.30
2022-09-23T13:15:44.850Z,1.67
2022-09-23T13:18:20.724Z,1.87
2022-09-23T13:20:48.439Z,2.10
2022-09-23T13:23:24.205Z,1.90
2022-09-23T13:25:51.954Z,1.67
2022-09-23T13:28:23.196Z,2.47
2022-09-23T13:30:52.056Z,2.60
2022-09-23T13:33:24.095Z,2.33
2022-09-23T13:35:52.508Z,2.10
2022-09-23T13:38:25.681Z,2.43
2022-09-23T13:41:07.907Z,2.70
2022-09-23T13:43:40.911Z,1.80
2022-09-23T13:46:17.338Z,2.13
2022-09-23T13:48:45.318Z,1.70
2022-09-23T13:51:15.971Z,1.90
2022-09-23T13:53:42.537Z,2.20
2022-09-23T13:56:13.615Z,2.33
2022-09-23T13:58:40.554Z,2.00
2022-09-23T14:01:21.223Z,2.03
2022-09-23T14:03:47.830Z,1.90
2022-09-23T14:06:16.012Z,1.80
2022-09-23T14:08:47.376Z,2.63
2022-09-23T14:11:15.508Z,2.87
2022-09-23T14:13:43.070Z,2.80
2022-09-23T14:16:15.079Z,2.73
2022-09-23T14:18:46.427Z,2.07
2022-09-23T14:21:34.667Z,2.17
2022-09-23T14:24:19.087Z,2.10
2022-09-23T14:26:47.415Z,3.87
2022-09-23T14:29:16.518Z,2.27
2022-09-23T14:31:56.891Z,3.10
2022-09-23T14:34:42.674Z,3.33
2022-09-23T14:37:37.313Z,2.57
2022-09-23T14:40:05.875Z,2.53
2022-09-23T14:42:38.370Z,2.50
2022-09-23T14:45:05.724Z,3.53
2022-09-23T14:47:33.663Z,1.90
2022-09-23T14:50:26.787Z,3.47
2022-09-23T14:52:53.425Z,3.03
2022-09-23T14:55:20.163Z,2.80
2022-09-23T14:57:47.454Z,2.10
2022-09-23T15:00:18.432Z,2.43
2022-09-23T15:02:56.764Z,2.50
2022-09-23T15:05:30.940Z,2.40
2022-09-23T15:08:00.138Z,3.03
2022-09-23T15:10:31.144Z,3.40
2022-09-23T15:13:06.986Z,2.97
2022-09-23T15:15:33.782Z,3.40
2022-09-23T15:18:08.351Z,3.23
2022-09-23T15:20:35.602Z,2.73
2022-09-23T15:23:02.407Z,3.10
2022-09-23T15:25:32.332Z,2.80
2022-09-23T15:28:03.347Z,2.20
2022-09-23T15:30:31.634Z,2.63
2022-09-23T15:32:58.625Z,2.50
2022-09-23T15:35:26.757Z,2.50
2022-09-23T15:37:55.786Z,2.40
2022-09-23T15:40:22.800Z,2.93
2022-09-23T15:42:52.977Z,2.87
2022-09-23T15:45:22.281Z,4.10
2022-09-23T15:47:49.826Z,3.17
2022-09-23T15:50:17.466Z,5.10
2022-09-23T15:52:47.013Z,2.87
2022-09-23T15:55:14.884Z,3.60
2022-09-23T15:57:41.625Z,3.20
2022-09-23T16:00:10.555Z,2.90
2022-09-23T16:02:39.628Z,3.00
2022-09-23T16:05:06.388Z,2.90
2022-09-23T16:07:33.980Z,3.33
2022-09-23T16:10:00.640Z,3.40
2022-09-23T16:12:27.890Z,3.30
2022-09-23T16:14:55.223Z,3.20
2022-09-23T16:17:22.121Z,4.07
2022-09-23T16:19:48.762Z,3.53
2022-09-23T16:22:16.054Z,3.60
2022-09-23T16:24:42.768Z,3.27
2022-09-23T16:27:11.909Z,3.77
2022-09-23T16:29:38.731Z,3.70
2022-09-23T16:32:05.598Z,4.40
2022-09-23T16:34:34.719Z,4.20
2022-09-23T16:37:01.437Z,3.30
2022-09-23T16:39:28.059Z,4.57
2022-09-23T16:41:54.748Z,4.90
2022-09-23T16:44:21.483Z,4.37
2022-09-23T16:46:48.423Z,4.00
2022-09-23T16:49:15.092Z,4.73
2022-09-23T16:51:41.916Z,5.03
2022-09-23T16:54:12.634Z,4.17
2022-09-23T16:56:45.326Z,5.20
2022-09-23T16:59:15.979Z,4.97
2022-09-23T17:02:01.373Z,4.57
2022-09-23T17:04:28.103Z,4.17
2022-09-23T17:06:54.952Z,4.20
2022-09-23T17:09:22.685Z,5.20
2022-09-23T17:11:52.985Z,6.27
2022-09-23T17:14:19.650Z,5.03
2022-09-23T17:16:46.364Z,5.63
2022-09-23T17:19:13.045Z,6.20
2022-09-23T17:21:40.021Z,6.40
2022-09-23T17:24:08.131Z,7.77
2022-09-23T17:26:34.935Z,8.60
2022-09-23T17:29:02.111Z,7.67
2022-09-23T17:31:28.960Z,7.30
2022-09-23T17:33:55.603Z,8.67
2022-09-23T17:36:22.399Z,14.67
2022-09-23T17:38:49.454Z,16.57
2022-09-23T17:41:17.285Z,7.80
2022-09-23T17:43:44.768Z,9.30
2022-09-23T17:46:12.774Z,6.87
2022-09-23T17:48:41.398Z,4.80
2022-09-23T17:51:10.331Z,5.40
2022-09-23T17:53:38.471Z,5.30
2022-09-23T17:56:06.410Z,5.10
2022-09-23T17:58:34.561Z,6.47
2022-09-23T18:01:02.769Z,5.60
2022-09-23T18:03:30.484Z,6.13
2022-09-23T18:06:15.478Z,6.90
2022-09-23T18:08:43.190Z,6.87
2022-09-23T18:11:22.507Z,7.60
2022-09-23T18:13:49.154Z,8.27
2022-09-23T18:16:16.321Z,9.80
2022-09-23T18:18:43.273Z,9.40
2022-09-23T18:21:10.449Z,9.87
2022-09-23T18:23:37.346Z,8.53
2022-09-23T18:26:04.372Z,8.30
2022-09-23T18:28:34.677Z,9.97
2022-09-23T18:31:01.885Z,9.70
2022-09-23T18:33:28.624Z,7.83
2022-09-23T18:35:55.939Z,8.80
2022-09-23T18:38:22.694Z,7.67
2022-09-23T18:40:54.278Z,8.40
2022-09-23T18:43:24.584Z,8.03
2022-09-23T18:45:58.428Z,7.03
2022-09-23T18:48:44.567Z,6.60
2022-09-23T18:51:11.660Z,8.50
2022-09-23T18:53:38.602Z,7.77
2022-09-23T18:56:09.551Z,7.30
2022-09-23T18:58:36.575Z,7.80
2022-09-23T19:01:07.385Z,8.87
2022-09-23T19:03:34.368Z,8.70
2022-09-23T19:06:08.463Z,9.03
2022-09-23T19:08:35.754Z,7.77
2022-09-23T19:11:03.858Z,9.40
2022-09-23T19:13:31.191Z,9.87
2022-09-23T19:16:09.909Z,8.70
2022-09-23T19:18:38.502Z,9.77
2022-09-23T19:21:07.157Z,10.20
2022-09-23T19:23:37.503Z,9.70
2022-09-23T19:26:11.974Z,10.23
2022-09-23T19:28:39.015Z,10.00
2022-09-23T19:31:14.003Z,11.73
2022-09-23T19:33:46.258Z,11.50
2022-09-23T19:36:16.419Z,11.87
2022-09-23T19:38:44.356Z,10.30
2022-09-23T19:41:11.232Z,11.73
2022-09-23T19:43:37.931Z,11.70
2022-09-23T19:46:06.765Z,11.77
2022-09-23T19:48:34.313Z,12.90
2022-09-23T19:51:02.625Z,11.83
2022-09-23T19:53:29.262Z,12.53
2022-09-23T19:55:56.284Z,10.43
2022-09-23T19:58:23.391Z,11.83
2022-09-23T20:00:49.889Z,11.50
2022-09-23T20:03:17.610Z,12.50
2022-09-23T20:05:44.244Z,11.43
2022-09-23T20:08:10.981Z,11.50
2022-09-23T20:10:40.728Z,10.37
2022-09-23T20:13:07.551Z,11.00
2022-09-23T20:15:34.157Z,11.67
2022-09-23T20:18:00.778Z,11.47
2022-09-23T20:20:27.388Z,11.03
2022-09-23T20:22:55.121Z,10.10
2022-09-23T20:25:21.702Z,11.93
2022-09-23T20:27:49.480Z,11.47
2022-09-23T20:30:16.245Z,11.07
2022-09-23T20:32:44.877Z,11.97
2022-09-23T20:35:11.679Z,13.20
2022-09-23T20:37:38.349Z,11.50
2022-09-23T20:40:05.218Z,12.10
2022-09-23T20:42:32.240Z,11.90
2022-09-23T20:44:58.810Z,12.03
2022-09-23T20:47:25.369Z,12.13
2022-09-23T20:49:53.439Z,11.17
2022-09-23T20:52:21.460Z,12.40
2022-09-23T20:54:51.532Z,11.37
2022-09-23T20:57:18.913Z,12.80
2022-09-23T20:59:45.523Z,12.33
2022-09-23T21:02:12.154Z,12.90
2022-09-23T21:04:38.748Z,12.17
2022-09-23T21:07:05.449Z,13.87
2022-09-23T21:09:32.025Z,12.57
2022-09-23T21:11:58.946Z,12.10
2022-09-23T21:14:25.811Z,11.47
2022-09-23T21:16:53.094Z,12.20
2022-09-23T21:19:19.724Z,13.47
2022-09-23T21:21:46.387Z,13.70
2022-09-23T21:24:40.122Z,13.70
2022-09-23T21:26:59.908Z,15.00
2022-09-23T21:29:26.458Z,13.10
2022-09-23T21:31:53.076Z,14.50
2022-09-23T21:34:19.853Z,12.33
2022-09-23T21:36:47.979Z,15.67
2022-09-23T21:39:14.783Z,14.50
2022-09-23T21:41:41.351Z,14.47
2022-09-23T21:44:08.508Z,14.93
2022-09-23T21:46:35.953Z,15.10
2022-09-23T21:49:03.900Z,14.70
2022-09-23T21:51:36.358Z,15.80
2022-09-23T21:54:02.922Z,16.97
2022-09-23T21:56:30.483Z,17.10
2022-09-23T21:58:58.264Z,15.67
2022-09-23T22:01:29.383Z,16.47
2022-09-23T22:04:01.690Z,17.40
2022-09-23T22:06:28.440Z,16.10
2022-09-23T22:08:58.922Z,17.20
2022-09-23T22:11:44.599Z,16.83
2022-09-23T22:14:12.429Z,16.13
2022-09-23T22:16:39.394Z,17.13
2022-09-23T22:19:09.140Z,15.53
2022-09-23T22:21:37.230Z,17.37
2022-09-23T22:24:04.693Z,16.80
2022-09-23T22:26:32.599Z,17.50
2022-09-23T22:29:17.798Z,18.73
2022-09-23T22:32:03.120Z,17.57
2022-09-23T22:34:49.144Z,18.37
2022-09-23T22:37:20.183Z,19.63
2022-09-23T22:39:46.782Z,18.47
2022-09-23T22:42:13.410Z,19.23
2022-09-23T22:44:39.959Z,19.10
2022-09-23T22:47:06.599Z,21.00
2022-09-23T22:49:33.430Z,19.43
2022-09-23T22:52:00.005Z,19.63
2022-09-23T22:54:33.712Z,19.20
2022-09-23T22:57:03.722Z,19.57
2022-09-23T22:59:30.237Z,20.63
2022-09-23T23:01:57.185Z,19.83
2022-09-23T23:04:23.853Z,21.17
2022-09-23T23:06:50.904Z,22.13
2022-09-23T23:09:18.331Z,22.20
2022-09-23T23:11:45.215Z,19.17
2022-09-23T23:14:12.761Z,19.83
2022-09-23T23:16:39.418Z,22.70
2022-09-23T23:19:09.646Z,20.50
2022-09-23T23:21:36.876Z,21.27
2022-09-23T23:24:04.482Z,19.20
2022-09-23T23:26:32.158Z,21.53
2022-09-23T23:28:59.186Z,20.03
2022-09-23T23:31:26.946Z,18.20
2022-09-23T23:33:54.130Z,17.73
2022-09-23T23:36:21.542Z,18.20
2022-09-23T23:38:48.664Z,20.03
2022-09-23T23:41:16.548Z,18.63
2022-09-23T23:43:44.416Z,22.20
2022-09-23T23:46:11.964Z,20.93
2022-09-23T23:48:39.289Z,20.10
2022-09-23T23:51:07.253Z,20.07
2022-09-23T23:53:35.077Z,20.87
2022-09-23T23:56:06.434Z,19.40
2022-09-23T23:58:33.090Z,22.33
